Flight Track Log - Related Links

Times and Time Zones

All times are in EDT time to prevent confusion due to time zone crossing. See the ASQ5874 flight status page for this flight to view local times or setup timezone preferences in your user account.


Time Position Orientation Groundspeed Altitude Reporting Facility
EDT Latitude Longitude Course Direction KTS MPH feet Rate Location/Type
Wed 06:47:18 AM 37.6361 -97.4469 58° Northeast 148 170 2,000  Level Kansas City Center
Wed 06:47:24 AM 37.6319 -97.4475 186° South 148 170 2,300 2,239 Climbing Kansas City Center
Wed 06:48:25 AM 37.5942 -97.4269 157° South 218 251 4,500 2,152 Climbing Kansas City Center
Wed 06:48:56 AM 37.6006 -97.3783 81° East 247 284 5,600 1,851 Climbing Kansas City Center
Wed 06:49:59 AM 37.6233 -97.2883 72° East 267 307 7,400 1,918 Climbing Kansas City Center
Wed 06:50:00 AM 37.8014 -97.1440 79° East  Level Estimated
Wed 06:50:58 AM 37.6475 -97.1872 73° East 295 339 9,500  Level Kansas City Center
Wed 06:51:00 AM 37.7963 -97.0285 93° East  Level FlightAware Approximate
Wed 06:51:57 AM 37.6736 -97.0839 72° East 308 354 11,200  Level Kansas City Center
Wed 06:52:00 AM 37.8470 -96.9322 58° Northeast  Level Estimated
Wed 06:52:57 AM 37.7019 -96.9658 73° East 344 396 12,200  Level Kansas City Center
Wed 06:53:57 AM 37.7322 -96.8406 73° East 370 426 13,300 1,339 Climbing Kansas City Center
Wed 06:54:58 AM 37.7633 -96.7125 73° East 379 436 14,900 1,537 Climbing Kansas City Center
Wed 06:55:58 AM 37.7933 -96.5883 73° East 373 429 16,400 1,756 Climbing Kansas City Center
Wed 06:57:01 AM 37.8225 -96.4661 73° East 367 422 18,500 1,750 Climbing Kansas City Center
Wed 06:57:58 AM 37.8503 -96.3453 74° East 360 414 19,900 1,250 Climbing Kansas City Center
Wed 06:59:01 AM 37.8811 -96.2172 73° East 369 425 21,000 1,091 Climbing Kansas City Center
Wed 06:59:59 AM 37.9125 -96.0858 73° East 382 440 22,100 1,017 Climbing Kansas City Center
Wed 07:00:59 AM 37.9419 -95.9578 74° East 389 448 23,000 934 Climbing Kansas City Center
Wed 07:02:01 AM 37.9714 -95.8269 74° East 400 460 24,000 1,041 Climbing Kansas City Center
Wed 07:03:00 AM 38.0078 -95.6725 73° East 409 471 25,100 984 Climbing Kansas City Center
Wed 07:04:03 AM 38.0381 -95.5378 74° East 414 476 26,000 900 Climbing Kansas City Center
Wed 07:05:00 AM 38.0689 -95.4044 74° East 413 475 26,900 1,008 Climbing Kansas City Center
Wed 07:06:02 AM 38.1044 -95.2472 74° East 417 480 28,000 1,016 Climbing Kansas City Center
Wed 07:07:04 AM 38.1344 -95.1128 74° East 416 479 29,000 934 Climbing Kansas City Center
Wed 07:08:04 AM 38.1733 -94.9819 69° East 422 486 29,900 992 Climbing Kansas City Center
Wed 07:09:05 AM 38.2319 -94.8389 62° Northeast 415 478 31,000 992 Climbing Kansas City Center
Wed 07:10:05 AM 38.2831 -94.7144 62° Northeast 414 476 31,900 893 Climbing Kansas City Center
Wed 07:11:06 AM 38.3369 -94.5869 62° Northeast 420 483 32,800 958 Climbing Kansas City Center
Wed 07:12:04 AM 38.3906 -94.4614 61° Northeast 423 487 33,800 1,017 Climbing Kansas City Center
Wed 07:13:04 AM 38.4714 -94.3294 52° Northeast 423 487 34,800 590 Climbing Kansas City Center
Wed 07:14:06 AM 38.5403 -94.2164 52° Northeast 422 486 35,000 97 Climbing Kansas City Center
Wed 07:15:08 AM 38.6142 -94.0944 52° Northeast 441 507 35,000  Level Kansas City Center
Wed 07:16:06 AM 38.7033 -93.9472 52° Northeast 463 533 35,000  Level Kansas City Center
Wed 07:17:06 AM 38.7789 -93.8214 52° Northeast 466 536 35,000  Level Kansas City Center
Wed 07:18:07 AM 38.8597 -93.6853 53° Northeast 465 535 35,000  Level Kansas City Center
Wed 07:19:10 AM 38.9381 -93.5528 53° Northeast 465 535 35,000  Level Kansas City Center
Wed 07:20:11 AM 39.0156 -93.4231 52° Northeast 461 531 35,000  Level Kansas City Center
Wed 07:21:12 AM 39.0931 -93.2908 53° Northeast 473 544 35,000  Level Kansas City Center
Wed 07:22:11 AM 39.1681 -93.1631 53° Northeast 460 529 35,000  Level Kansas City Center
Wed 07:23:11 AM 39.2428 -93.0372 52° Northeast 450 518 35,000  Level Kansas City Center
Wed 07:24:13 AM 39.3189 -92.9067 53° Northeast 455 524 35,000  Level Kansas City Center
Wed 07:25:14 AM 39.4103 -92.7489 53° Northeast 460 529 35,000  Level Kansas City Center
Wed 07:26:15 AM 39.4856 -92.6200 53° Northeast 457 526 35,000  Level Kansas City Center
Wed 07:27:15 AM 39.5606 -92.4939 52° Northeast 451 519 35,000  Level Kansas City Center
Wed 07:28:14 AM 39.6361 -92.3611 54° Northeast 458 527 35,000  Level Kansas City Center
Wed 07:29:15 AM 39.7119 -92.2286 53° Northeast 461 531 35,000  Level Kansas City Center
Wed 07:30:17 AM 39.7892 -92.0936 53° Northeast 466 536 35,000  Level Kansas City Center
Wed 07:31:18 AM 39.8636 -91.9625 53° Northeast 463 533 35,000  Level Kansas City Center
Wed 07:32:18 AM 39.9358 -91.8344 54° Northeast 454 522 35,000  Level Kansas City Center
Wed 07:33:19 AM 40.0103 -91.7033 53° Northeast 453 521 35,000  Level Kansas City Center
Wed 07:34:21 AM 40.0953 -91.5514 54° Northeast 444 511 35,000  Level Kansas City Center
Wed 07:35:21 AM 40.1664 -91.4225 54° Northeast 442 509 35,000 -298 Level Kansas City Center
Wed 07:36:22 AM 40.2381 -91.2925 54° Northeast 444 511 34,400 -787 Descending Kansas City Center
Wed 07:37:23 AM 40.3161 -91.1525 54° Northeast 448 516 33,400 -689 Descending Kansas City Center
Wed 07:38:24 AM 40.3906 -91.0169 54° Northeast 455 524 33,000 -253 Descending Kansas City Center
Wed 07:38:58 AM 40.4358 -90.9361 54° Northeast 454 522 33,000  Level Chicago Center
Wed 07:39:59 AM 40.5106 -90.7986 54° Northeast 461 531 33,000  Level Chicago Center
Wed 07:41:01 AM 40.5808 -90.6556 57° Northeast 466 536 33,000  Level Chicago Center
Wed 07:42:02 AM 40.6503 -90.5128 57° Northeast 462 532 33,000  Level Chicago Center
Wed 07:43:04 AM 40.7206 -90.3689 57° Northeast 464 534 33,000  Level Chicago Center
Wed 07:44:05 AM 40.7950 -90.2225 56° Northeast 463 533 33,000 -488 Level Chicago Center
Wed 07:45:07 AM 40.8633 -90.0781 58° Northeast 465 535 32,000 -1,512 Descending Chicago Center
Wed 07:46:08 AM 40.9292 -89.9358 58° Northeast 459 528 29,900 -2,146 Descending Chicago Center
Wed 07:47:10 AM 41.0031 -89.7889 56° Northeast 462 532 27,600 -2,293 Descending Chicago Center
Wed 07:48:11 AM 41.0747 -89.6408 57° Northeast 470 541 25,200 -1,770 Descending Chicago Center
Wed 07:49:12 AM 41.1439 -89.4939 58° Northeast 468 539 24,000 -1,854 Descending Chicago Center
Wed 07:50:14 AM 41.2253 -89.3228 58° Northeast 457 526 21,400 -2,537 Descending Chicago Center
Wed 07:51:15 AM 41.2894 -89.1881 58° Northeast 433 498 18,800 -2,390 Descending Chicago Center
Wed 07:52:17 AM 41.3453 -89.0658 59° Northeast 418 481 16,500 -2,439 Descending Chicago Center
Wed 07:53:18 AM 41.4053 -88.9383 58° Northeast 408 470 13,800 -2,390 Descending Chicago Center
Wed 07:54:20 AM 41.4631 -88.8139 58° Northeast 395 455 11,600 -1,415 Descending Chicago Center
Wed 07:55:21 AM 41.5269 -88.6697 59° Northeast 379 436 10,900 -293 Descending Chicago Center
Wed 07:56:23 AM 41.5669 -88.5686 62° Northeast 307 353 11,000 -390 Climbing Chicago Center
Wed 07:57:24 AM 41.6081 -88.4703 61° Northeast 304 350 10,100 -1,073 Descending Chicago Center
Wed 07:58:26 AM 41.6583 -88.3839 52° Northeast 295 339 8,800 -1,268 Descending Chicago Center
Wed 07:59:27 AM 41.7353 -88.3583 14° North 286 329 7,500 -1,073 Descending Chicago Center
Wed 08:00:29 AM 41.8111 -88.3400 10° North 277 319 6,600 -1,317 Descending Chicago Center
Wed 08:01:30 AM 41.8864 -88.3228 10° North 276 318 4,800 -1,268 Descending Chicago Center
Wed 08:02:32 AM 41.9542 -88.2878 21° North 275 316 4,000 -387 Descending Chicago Center
Wed 08:03:34 AM 41.9686 -88.1869 79° East 278 320 4,000 -379 Level Chicago Center
Wed 08:04:07 AM 41.9667 -88.1167 92° East 271 312 3,400 -1,172 Descending Chicago TRACON
Wed 08:05:01 AM 41.9667 -88.0333 90° East 217 250 2,300 -1,000 Descending Chicago TRACON
Wed 08:06:07 AM 41.9667 -87.9667 90° East 141 162 1,400 -818 Descending Chicago TRACON

Login

Don't have an account? Register now (free) for customized features, flight alerts, and more!